Current Weather

Heathrow

Heathrow, United Kingdom (EGLL)

Report from: Thursday, May 19, 2022 7:50 PM BST
Current time: Thursday, May 19, 2022 8:32 PM BST

Nearby weather
Weather history
Weather forecast

Temperature20.0°C (68.0°F)
Dew point9.0°C (48.2°F)
Winds 9 kts (4.6 m/s, 10.4 mph) Vrb
Winds variableWinds variable from South-Southwest (210°) to West (270°)
Visibility6.2 mi. (10 km)
Clouds Few clouds 4,800 ft. (1,463 m)
Altimeter30.09 in.Hg (1019 mB)
Relative humidity49 %
Density altitude556 ft. (170 m)
Remarks Fully automated report
Corrected report
No significant changes expected in the next two hours
Flight conditions Visual Meteorological Conditions
Raw dataCOR EGLL 191850Z AUTO 23009KT 210V270 9999 FEW048 20/09 Q1019 NOSIG
An error has occurred. This application may no longer respond until reloaded. Reload 🗙